sensor_id;sensor_type;location;lat;lon;timestamp;pressure;altitude;pressure_sealevel;temperature
64947;BMP280;51469;52.150;4.682;2023-04-06T00:00:04;102053.22;;;11.96
64947;BMP280;51469;52.150;4.682;2023-04-06T00:02:30;102051.59;;;11.95
64947;BMP280;51469;52.150;4.682;2023-04-06T00:04:55;102059.41;;;11.93
64947;BMP280;51469;52.150;4.682;2023-04-06T00:07:21;102045.38;;;11.98
64947;BMP280;51469;52.150;4.682;2023-04-06T00:09:46;102045.53;;;12.05
64947;BMP280;51469;52.150;4.682;2023-04-06T00:12:12;102028.19;;;12.01
64947;BMP280;51469;52.150;4.682;2023-04-06T00:14:37;102044.88;;;12.08
64947;BMP280;51469;52.150;4.682;2023-04-06T00:17:03;102037.91;;;12.14
64947;BMP280;51469;52.150;4.682;2023-04-06T00:19:28;102042.72;;;12.17
64947;BMP280;51469;52.150;4.682;2023-04-06T00:21:53;102038.38;;;12.16
64947;BMP280;51469;52.150;4.682;2023-04-06T00:24:19;102030.13;;;12.16
64947;BMP280;51469;52.150;4.682;2023-04-06T00:26:44;102028.50;;;12.15
64947;BMP280;51469;52.150;4.682;2023-04-06T00:29:10;102025.75;;;12.15
64947;BMP280;51469;52.150;4.682;2023-04-06T00:31:35;102026.22;;;12.17
64947;BMP280;51469;52.150;4.682;2023-04-06T00:34:01;102017.69;;;12.22
64947;BMP280;51469;52.150;4.682;2023-04-06T00:36:26;102009.88;;;12.24
64947;BMP280;51469;52.150;4.682;2023-04-06T00:38:51;102011.47;;;12.25
64947;BMP280;51469;52.150;4.682;2023-04-06T00:41:17;102005.59;;;12.26
64947;BMP280;51469;52.150;4.682;2023-04-06T00:43:43;101999.69;;;12.24
64947;BMP280;51469;52.150;4.682;2023-04-06T00:46:08;101994.06;;;12.21
64947;BMP280;51469;52.150;4.682;2023-04-06T00:48:34;102000.28;;;12.18
64947;BMP280;51469;52.150;4.682;2023-04-06T00:51:00;101993.19;;;12.17
64947;BMP280;51469;52.150;4.682;2023-04-06T00:53:26;101990.69;;;12.12
64947;BMP280;51469;52.150;4.682;2023-04-06T00:55:51;101993.19;;;12.17
64947;BMP280;51469;52.150;4.682;2023-04-06T00:58:16;101988.56;;;12.21
64947;BMP280;51469;52.150;4.682;2023-04-06T01:00:42;101989.34;;;12.21
64947;BMP280;51469;52.150;4.682;2023-04-06T01:03:07;101979.69;;;12.12
64947;BMP280;51469;52.150;4.682;2023-04-06T01:05:34;101982.63;;;12.19
64947;BMP280;51469;52.150;4.682;2023-04-06T01:08:04;101975.16;;;12.19
64947;BMP280;51469;52.150;4.682;2023-04-06T01:10:30;101974.38;;;12.19
64947;BMP280;51469;52.150;4.682;2023-04-06T01:12:56;101967.97;;;12.15
64947;BMP280;51469;52.150;4.682;2023-04-06T01:15:22;101968.44;;;12.17
64947;BMP280;51469;52.150;4.682;2023-04-06T01:17:47;101964.94;;;12.20
64947;BMP280;51469;52.150;4.682;2023-04-06T01:20:13;101967.19;;;12.14
64947;BMP280;51469;52.150;4.682;2023-04-06T01:22:38;101966.41;;;12.14
64947;BMP280;51469;52.150;4.682;2023-04-06T01:25:04;101963.03;;;12.05
64947;BMP280;51469;52.150;4.682;2023-04-06T01:27:30;101955.06;;;12.00
64947;BMP280;51469;52.150;4.682;2023-04-06T01:29:55;101947.88;;;11.95
64947;BMP280;51469;52.150;4.682;2023-04-06T01:32:21;101952.84;;;11.90
64947;BMP280;51469;52.150;4.682;2023-04-06T01:34:46;101953.13;;;11.85
64947;BMP280;51469;52.150;4.682;2023-04-06T01:37:12;101950.72;;;11.83
64947;BMP280;51469;52.150;4.682;2023-04-06T01:39:37;101944.00;;;11.81
64947;BMP280;51469;52.150;4.682;2023-04-06T01:42:03;101935.31;;;11.79
64947;BMP280;51469;52.150;4.682;2023-04-06T01:44:28;101927.22;;;11.70
64947;BMP280;51469;52.150;4.682;2023-04-06T01:46:55;101928.56;;;11.76
64947;BMP280;51469;52.150;4.682;2023-04-06T01:49:21;101926.25;;;11.78
64947;BMP280;51469;52.150;4.682;2023-04-06T01:51:47;101925.75;;;11.73
64947;BMP280;51469;52.150;4.682;2023-04-06T01:54:12;101919.78;;;11.71
64947;BMP280;51469;52.150;4.682;2023-04-06T01:56:38;101914.28;;;11.71
64947;BMP280;51469;52.150;4.682;2023-04-06T01:59:03;101919.78;;;11.71
64947;BMP280;51469;52.150;4.682;2023-04-06T02:01:28;101920.06;;;11.66
64947;BMP280;51469;52.150;4.682;2023-04-06T02:03:54;101919.59;;;11.64
64947;BMP280;51469;52.150;4.682;2023-04-06T02:06:19;101918.75;;;11.60
64947;BMP280;51469;52.150;4.682;2023-04-06T02:08:45;101910.50;;;11.60
64947;BMP280;51469;52.150;4.682;2023-04-06T02:11:11;101906.13;;;11.59
64947;BMP280;51469;52.150;4.682;2023-04-06T02:13:36;101904.66;;;11.61
64947;BMP280;51469;52.150;4.682;2023-04-06T02:16:01;101901.47;;;11.59
64947;BMP280;51469;52.150;4.682;2023-04-06T02:18:29;101899.25;;;11.65
64947;BMP280;51469;52.150;4.682;2023-04-06T02:20:55;101892.13;;;11.64
64947;BMP280;51469;52.150;4.682;2023-04-06T02:23:20;101890.53;;;11.63
64947;BMP280;51469;52.150;4.682;2023-04-06T02:25:46;101893.56;;;11.58
64947;BMP280;51469;52.150;4.682;2023-04-06T02:28:11;101888.91;;;11.62
64947;BMP280;51469;52.150;4.682;2023-04-06T02:30:37;101885.78;;;11.60
64947;BMP280;51469;52.150;4.682;2023-04-06T02:33:02;101892.03;;;11.60
64947;BMP280;51469;52.150;4.682;2023-04-06T02:35:29;101880.34;;;11.63
64947;BMP280;51469;52.150;4.682;2023-04-06T02:37:55;101882.03;;;11.68
64947;BMP280;51469;52.150;4.682;2023-04-06T02:40:20;101887.53;;;11.68
64947;BMP280;51469;52.150;4.682;2023-04-06T02:42:46;101875.81;;;11.71
64947;BMP280;51469;52.150;4.682;2023-04-06T02:45:11;101870.06;;;11.76
64947;BMP280;51469;52.150;4.682;2023-04-06T02:47:36;101876.84;;;11.82
64947;BMP280;51469;52.150;4.682;2023-04-06T02:50:02;101872.50;;;11.81
64947;BMP280;51469;52.150;4.682;2023-04-06T02:52:28;101868.09;;;11.76
64947;BMP280;51469;52.150;4.682;2023-04-06T02:54:53;101859.13;;;11.79
64947;BMP280;51469;52.150;4.682;2023-04-06T02:57:18;101857.19;;;11.80
64947;BMP280;51469;52.150;4.682;2023-04-06T02:59:44;101859.66;;;11.85
64947;BMP280;51469;52.150;4.682;2023-04-06T03:02:09;101856.91;;;11.85
64947;BMP280;51469;52.150;4.682;2023-04-06T03:04:35;101854.22;;;11.88
64947;BMP280;51469;52.150;4.682;2023-04-06T03:07:00;101851.88;;;11.90
64947;BMP280;51469;52.150;4.682;2023-04-06T03:09:26;101845.59;;;11.90
64947;BMP280;51469;52.150;4.682;2023-04-06T03:11:51;101851.09;;;11.90
64947;BMP280;51469;52.150;4.682;2023-04-06T03:14:16;101841.69;;;11.91
64947;BMP280;51469;52.150;4.682;2023-04-06T03:16:46;101838.88;;;11.87
64947;BMP280;51469;52.150;4.682;2023-04-06T03:19:12;101841.63;;;11.87
64947;BMP280;51469;52.150;4.682;2023-04-06T03:21:37;101834.19;;;11.88
64947;BMP280;51469;52.150;4.682;2023-04-06T03:24:03;101836.94;;;11.88
64947;BMP280;51469;52.150;4.682;2023-04-06T03:26:28;101828.16;;;11.82
64947;BMP280;51469;52.150;4.682;2023-04-06T03:28:53;101833.75;;;11.86
64947;BMP280;51469;52.150;4.682;2023-04-06T03:31:19;101831.44;;;11.88
64947;BMP280;51469;52.150;4.682;2023-04-06T03:33:44;101833.75;;;11.86
64947;BMP280;51469;52.150;4.682;2023-04-06T03:36:10;101829.81;;;11.87
64947;BMP280;51469;52.150;4.682;2023-04-06T03:38:35;101825.94;;;11.88
64947;BMP280;51469;52.150;4.682;2023-04-06T03:41:01;101817.69;;;11.88
64947;BMP280;51469;52.150;4.682;2023-04-06T03:43:26;101818.88;;;11.90
64947;BMP280;51469;52.150;4.682;2023-04-06T03:45:52;101818.97;;;11.94
64947;BMP280;51469;52.150;4.682;2023-04-06T03:48:17;101817.41;;;11.93
64947;BMP280;51469;52.150;4.682;2023-04-06T03:50:42;101818.81;;;11.87
64947;BMP280;51469;52.150;4.682;2023-04-06T03:53:08;101812.63;;;11.90
64947;BMP280;51469;52.150;4.682;2023-04-06T03:55:33;101807.53;;;11.92
64947;BMP280;51469;52.150;4.682;2023-04-06T03:57:59;101810.44;;;11.99
64947;BMP280;51469;52.150;4.682;2023-04-06T04:00:25;101814.44;;;12.01
64947;BMP280;51469;52.150;4.682;2023-04-06T04:02:50;101798.16;;;11.93
64947;BMP280;51469;52.150;4.682;2023-04-06T04:05:16;101801.63;;;11.90
64947;BMP280;51469;52.150;4.682;2023-04-06T04:07:41;101799.72;;;11.94
64947;BMP280;51469;52.150;4.682;2023-04-06T04:10:07;101811.03;;;11.89
64947;BMP280;51469;52.150;4.682;2023-04-06T04:12:32;101811.84;;;11.89
64947;BMP280;51469;52.150;4.682;2023-04-06T04:14:57;101797.53;;;11.84
64947;BMP280;51469;52.150;4.682;2023-04-06T04:17:24;101797.69;;;11.91
64947;BMP280;51469;52.150;4.682;2023-04-06T04:19:50;101796.53;;;11.92
64947;BMP280;51469;52.150;4.682;2023-04-06T04:22:15;101803.19;;;11.91
64947;BMP280;51469;52.150;4.682;2023-04-06T04:24:40;101796.53;;;11.92
64947;BMP280;51469;52.150;4.682;2023-04-06T04:27:06;101798.56;;;11.95
64947;BMP280;51469;52.150;4.682;2023-04-06T04:29:31;101800.69;;;12.01
64947;BMP280;51469;52.150;4.682;2023-04-06T04:31:57;101807.03;;;12.05
64947;BMP280;51469;52.150;4.682;2023-04-06T04:34:22;101795.69;;;12.07
64947;BMP280;51469;52.150;4.682;2023-04-06T04:36:52;101799.75;;;12.13
64947;BMP280;51469;52.150;4.682;2023-04-06T04:39:17;101797.88;;;12.17
64947;BMP280;51469;52.150;4.682;2023-04-06T04:41:43;101791.91;;;12.15
64947;BMP280;51469;52.150;4.682;2023-04-06T04:44:08;101791.06;;;12.11
64947;BMP280;51469;52.150;4.682;2023-04-06T04:46:33;101794.25;;;12.13
64947;BMP280;51469;52.150;4.682;2023-04-06T04:48:59;101783.97;;;12.10
64947;BMP280;51469;52.150;4.682;2023-04-06T04:51:24;101796.13;;;12.09
64947;BMP280;51469;52.150;4.682;2023-04-06T04:53:50;101794.53;;;12.08
64947;BMP280;51469;52.150;4.682;2023-04-06T04:56:15;101784.81;;;12.14
64947;BMP280;51469;52.150;4.682;2023-04-06T04:58:41;101794.31;;;12.16
64947;BMP280;51469;52.150;4.682;2023-04-06T05:01:07;101789.53;;;12.13
64947;BMP280;51469;52.150;4.682;2023-04-06T05:03:32;101793.94;;;12.18
64947;BMP280;51469;52.150;4.682;2023-04-06T05:05:58;101791.34;;;12.25
64947;BMP280;51469;52.150;4.682;2023-04-06T05:08:23;101790.47;;;12.21
64947;BMP280;51469;52.150;4.682;2023-04-06T05:10:49;101788.34;;;12.33
64947;BMP280;51469;52.150;4.682;2023-04-06T05:13:14;101778.91;;;12.31
64947;BMP280;51469;52.150;4.682;2023-04-06T05:15:40;101787.28;;;12.38
64947;BMP280;51469;52.150;4.682;2023-04-06T05:18:07;101790.88;;;12.42
64947;BMP280;51469;52.150;4.682;2023-04-06T05:20:33;101793.28;;;12.43
64947;BMP280;51469;52.150;4.682;2023-04-06T05:22:59;101777.78;;;12.35
64947;BMP280;51469;52.150;4.682;2023-04-06T05:25:24;101776.69;;;12.40
64947;BMP280;51469;52.150;4.682;2023-04-06T05:27:50;101784.06;;;12.55
64947;BMP280;51469;52.150;4.682;2023-04-06T05:30:16;101783.50;;;12.68
64947;BMP280;51469;52.150;4.682;2023-04-06T05:32:41;101783.59;;;12.72
64947;BMP280;51469;52.150;4.682;2023-04-06T05:35:08;101779.97;;;12.90
64947;BMP280;51469;52.150;4.682;2023-04-06T05:37:34;101782.03;;;12.97
64947;BMP280;51469;52.150;4.682;2023-04-06T05:39:59;101780.44;;;12.96
64947;BMP280;51469;52.150;4.682;2023-04-06T05:42:25;101786.91;;;13.07
64947;BMP280;51469;52.150;4.682;2023-04-06T05:44:52;101776.94;;;12.99
64947;BMP280;51469;52.150;4.682;2023-04-06T05:47:17;101781.06;;;13.08
64947;BMP280;51469;52.150;4.682;2023-04-06T05:49:43;101790.53;;;13.11
64947;BMP280;51469;52.150;4.682;2023-04-06T05:52:09;101782.69;;;13.13
64947;BMP280;51469;52.150;4.682;2023-04-06T05:54:36;101785.97;;;13.22
64947;BMP280;51469;52.150;4.682;2023-04-06T05:57:02;101787.97;;;13.25
64947;BMP280;51469;52.150;4.682;2023-04-06T05:59:32;101790.91;;;13.35
64947;BMP280;51469;52.150;4.682;2023-04-06T06:01:57;101790.16;;;13.38
64947;BMP280;51469;52.150;4.682;2023-04-06T06:04:23;101784.59;;;13.35
64947;BMP280;51469;52.150;4.682;2023-04-06T06:06:48;101774.53;;;13.46
64947;BMP280;51469;52.150;4.682;2023-04-06T06:09:13;101784.88;;;13.52
64947;BMP280;51469;52.150;4.682;2023-04-06T06:11:39;101782.56;;;13.58
64947;BMP280;51469;52.150;4.682;2023-04-06T06:14:05;101785.75;;;13.60
64947;BMP280;51469;52.150;4.682;2023-04-06T06:16:31;101786.16;;;13.62
64947;BMP280;51469;52.150;4.682;2023-04-06T06:18:56;101785.53;;;13.72
64947;BMP280;51469;52.150;4.682;2023-04-06T06:21:22;101782.81;;;13.75
64947;BMP280;51469;52.150;4.682;2023-04-06T06:23:47;101781.34;;;13.85
64947;BMP280;51469;52.150;4.682;2023-04-06T06:26:14;101787.28;;;13.87
64947;BMP280;51469;52.150;4.682;2023-04-06T06:28:40;101776.22;;;13.83
64947;BMP280;51469;52.150;4.682;2023-04-06T06:31:05;101779.09;;;13.94
64947;BMP280;51469;52.150;4.682;2023-04-06T06:33:31;101787.03;;;13.99
64947;BMP280;51469;52.150;4.682;2023-04-06T06:35:56;101772.88;;;14.00
64947;BMP280;51469;52.150;4.682;2023-04-06T06:38:21;101778.59;;;14.18
64947;BMP280;51469;52.150;4.682;2023-04-06T06:40:47;101781.78;;;14.20
64947;BMP280;51469;52.150;4.682;2023-04-06T06:43:12;101781.88;;;14.27
64947;BMP280;51469;52.150;4.682;2023-04-06T06:45:38;101776.19;;;14.16
64947;BMP280;51469;52.150;4.682;2023-04-06T06:48:03;101782.25;;;14.29
64947;BMP280;51469;52.150;4.682;2023-04-06T06:50:29;101778.66;;;14.25
64947;BMP280;51469;52.150;4.682;2023-04-06T06:52:54;101782.66;;;14.31
64947;BMP280;51469;52.150;4.682;2023-04-06T06:55:19;101781.16;;;14.37
64947;BMP280;51469;52.150;4.682;2023-04-06T06:57:45;101780.41;;;14.40
64947;BMP280;51469;52.150;4.682;2023-04-06T07:00:12;101769.84;;;14.49
64947;BMP280;51469;52.150;4.682;2023-04-06T07:02:39;101774.13;;;14.43
64947;BMP280;51469;52.150;4.682;2023-04-06T07:05:05;101774.94;;;14.43
64947;BMP280;51469;52.150;4.682;2023-04-06T07:07:34;101766.38;;;14.59
64947;BMP280;51469;52.150;4.682;2023-04-06T07:10:00;101768.75;;;14.60
64947;BMP280;51469;52.150;4.682;2023-04-06T07:12:26;101769.66;;;14.75
64947;BMP280;51469;52.150;4.682;2023-04-06T07:14:51;101741.88;;;14.57
64947;BMP280;51469;52.150;4.682;2023-04-06T07:17:17;101763.09;;;14.90
64947;BMP280;51469;52.150;4.682;2023-04-06T07:19:42;101763.56;;;14.99
64947;BMP280;51469;52.150;4.682;2023-04-06T07:22:08;101759.56;;;14.90
64947;BMP280;51469;52.150;4.682;2023-04-06T07:24:33;101758.81;;;14.96
64947;BMP280;51469;52.150;4.682;2023-04-06T07:26:59;101763.47;;;14.92
64947;BMP280;51469;52.150;4.682;2023-04-06T07:29:26;101748.53;;;14.97
64947;BMP280;51469;52.150;4.682;2023-04-06T07:31:52;101748.63;;;15.07
64947;BMP280;51469;52.150;4.682;2023-04-06T07:34:17;101755.00;;;15.18
64947;BMP280;51469;52.150;4.682;2023-04-06T07:36:42;101751.06;;;15.19
64947;BMP280;51469;52.150;4.682;2023-04-06T07:39:08;101753.47;;;15.24
64947;BMP280;51469;52.150;4.682;2023-04-06T07:41:33;101746.78;;;15.32
64947;BMP280;51469;52.150;4.682;2023-04-06T07:43:59;101743.28;;;15.42
64947;BMP280;51469;52.150;4.682;2023-04-06T07:46:24;101742.97;;;15.61
64947;BMP280;51469;52.150;4.682;2023-04-06T07:48:50;101749.31;;;15.65
64947;BMP280;51469;52.150;4.682;2023-04-06T07:51:16;101741.03;;;15.79
64947;BMP280;51469;52.150;4.682;2023-04-06T07:53:44;101737.13;;;15.87
64947;BMP280;51469;52.150;4.682;2023-04-06T07:56:09;101745.88;;;16.00
64947;BMP280;51469;52.150;4.682;2023-04-06T07:58:35;101741.13;;;16.21
64947;BMP280;51469;52.150;4.682;2023-04-06T08:03:36;101741.91;;;16.22
64947;BMP280;51469;52.150;4.682;2023-04-06T08:06:02;101739.16;;;16.22
64947;BMP280;51469;52.150;4.682;2023-04-06T08:08:28;101742.34;;;16.27
64947;BMP280;51469;52.150;4.682;2023-04-06T08:10:54;101737.19;;;16.22
64947;BMP280;51469;52.150;4.682;2023-04-06T08:13:19;101741.94;;;16.25
64947;BMP280;51469;52.150;4.682;2023-04-06T08:15:45;101741.13;;;16.32
64947;BMP280;51469;52.150;4.682;2023-04-06T08:18:11;101747.47;;;16.25
64947;BMP280;51469;52.150;4.682;2023-04-06T08:20:36;101733.66;;;16.36
64947;BMP280;51469;52.150;4.682;2023-04-06T08:23:02;101744.34;;;16.44
64947;BMP280;51469;52.150;4.682;2023-04-06T08:25:27;101749.88;;;16.44
64947;BMP280;51469;52.150;4.682;2023-04-06T08:27:52;101739.56;;;16.48
64947;BMP280;51469;52.150;4.682;2023-04-06T08:30:18;101737.97;;;16.33
64947;BMP280;51469;52.150;4.682;2023-04-06T08:32:45;101741.97;;;16.46
64947;BMP280;51469;52.150;4.682;2023-04-06T08:35:10;101735.63;;;16.39
64947;BMP280;51469;52.150;4.682;2023-04-06T08:37:36;101740.38;;;16.52
64947;BMP280;51469;52.150;4.682;2023-04-06T08:40:01;101743.94;;;16.70
64947;BMP280;51469;52.150;4.682;2023-04-06T08:42:32;101742.75;;;16.82
64947;BMP280;51469;52.150;4.682;2023-04-06T08:44:57;101745.88;;;16.94
64947;BMP280;51469;52.150;4.682;2023-04-06T08:47:23;101750.59;;;17.11
64947;BMP280;51469;52.150;4.682;2023-04-06T08:49:48;101702.31;;;16.91
64947;BMP280;51469;52.150;4.682;2023-04-06T08:52:17;101737.06;;;17.23
64947;BMP280;51469;52.150;4.682;2023-04-06T08:54:43;101748.22;;;17.13
64947;BMP280;51469;52.150;4.682;2023-04-06T08:57:09;101740.72;;;16.96
64947;BMP280;51469;52.150;4.682;2023-04-06T08:59:35;101755.75;;;17.02
64947;BMP280;51469;52.150;4.682;2023-04-06T09:02:03;101738.69;;;17.07
64947;BMP280;51469;52.150;4.682;2023-04-06T09:04:30;101746.66;;;16.84
64947;BMP280;51469;52.150;4.682;2023-04-06T09:06:56;101752.25;;;16.67
64947;BMP280;51469;52.150;4.682;2023-04-06T09:09:22;101752.25;;;16.77
64947;BMP280;51469;52.150;4.682;2023-04-06T09:11:51;101747.06;;;16.79
64947;BMP280;51469;52.150;4.682;2023-04-06T09:14:32;101744.69;;;16.88
64947;BMP280;51469;52.150;4.682;2023-04-06T09:16:57;101735.59;;;17.02
64947;BMP280;51469;52.150;4.682;2023-04-06T09:19:23;101740.34;;;16.84
64947;BMP280;51469;52.150;4.682;2023-04-06T09:21:48;101744.28;;;17.00
64947;BMP280;51469;52.150;4.682;2023-04-06T09:24:14;101723.25;;;17.13
64947;BMP280;51469;52.150;4.682;2023-04-06T09:26:46;101743.28;;;17.59
64947;BMP280;51469;52.150;4.682;2023-04-06T09:29:22;101740.13;;;17.53
64947;BMP280;51469;52.150;4.682;2023-04-06T09:31:49;101745.66;;;17.57
64947;BMP280;51469;52.150;4.682;2023-04-06T09:34:22;101737.84;;;17.35
64947;BMP280;51469;52.150;4.682;2023-04-06T09:36:48;101739.81;;;17.41
64947;BMP280;51469;52.150;4.682;2023-04-06T09:39:13;101736.34;;;17.02
64947;BMP280;51469;52.150;4.682;2023-04-06T09:41:39;101745.88;;;17.01
64947;BMP280;51469;52.150;4.682;2023-04-06T09:44:09;101742.66;;;17.13
64947;BMP280;51469;52.150;4.682;2023-04-06T09:46:37;101733.16;;;17.21
64947;BMP280;51469;52.150;4.682;2023-04-06T09:49:05;101737.19;;;16.92
64947;BMP280;51469;52.150;4.682;2023-04-06T09:51:34;101739.47;;;17.18
64947;BMP280;51469;52.150;4.682;2023-04-06T09:54:01;101706.19;;;17.18
64947;BMP280;51469;52.150;4.682;2023-04-06T09:56:33;101724.34;;;17.40
64947;BMP280;51469;52.150;4.682;2023-04-06T09:59:12;101722.03;;;17.28
64947;BMP280;51469;52.150;4.682;2023-04-06T10:01:39;101722.75;;;17.39
64947;BMP280;51469;52.150;4.682;2023-04-06T10:04:17;101716.00;;;17.40
64947;BMP280;51469;52.150;4.682;2023-04-06T10:06:46;101721.22;;;17.17
64947;BMP280;51469;52.150;4.682;2023-04-06T10:09:17;101719.66;;;17.23
64947;BMP280;51469;52.150;4.682;2023-04-06T10:11:43;101727.66;;;16.93
64947;BMP280;51469;52.150;4.682;2023-04-06T10:14:09;101724.53;;;16.63
64947;BMP280;51469;52.150;4.682;2023-04-06T10:16:35;101717.03;;;16.25
64947;BMP280;51469;52.150;4.682;2023-04-06T10:19:13;101729.28;;;16.45
64947;BMP280;51469;52.150;4.682;2023-04-06T10:21:44;101718.22;;;16.59
64947;BMP280;51469;52.150;4.682;2023-04-06T10:24:10;101709.13;;;16.55
64947;BMP280;51469;52.150;4.682;2023-04-06T10:26:37;101717.41;;;16.48
64947;BMP280;51469;52.150;4.682;2023-04-06T10:29:03;101716.63;;;16.58
64947;BMP280;51469;52.150;4.682;2023-04-06T10:31:29;101713.06;;;16.33
64947;BMP280;51469;52.150;4.682;2023-04-06T10:33:59;101707.91;;;16.28
64947;BMP280;51469;52.150;4.682;2023-04-06T10:36:27;101712.69;;;16.24
64947;BMP280;51469;52.150;4.682;2023-04-06T10:38:57;101714.25;;;16.18
64947;BMP280;51469;52.150;4.682;2023-04-06T10:41:24;101712.63;;;15.93
64947;BMP280;51469;52.150;4.682;2023-04-06T10:43:57;101701.16;;;15.98
64947;BMP280;51469;52.150;4.682;2023-04-06T10:46:27;101700.78;;;15.99
64947;BMP280;51469;52.150;4.682;2023-04-06T10:48:52;101700.75;;;15.82
64947;BMP280;51469;52.150;4.682;2023-04-06T10:51:19;101699.16;;;15.74
64947;BMP280;51469;52.150;4.682;2023-04-06T10:53:47;101691.97;;;15.55
64947;BMP280;51469;52.150;4.682;2023-04-06T10:56:15;101695.44;;;15.38
64947;BMP280;51469;52.150;4.682;2023-04-06T10:58:45;101687.84;;;15.21
64947;BMP280;51469;52.150;4.682;2023-04-06T11:01:12;101692.69;;;15.38
64947;BMP280;51469;52.150;4.682;2023-04-06T11:03:45;101670.56;;;15.38
64947;BMP280;51469;52.150;4.682;2023-04-06T11:06:18;101673.31;;;15.38
64947;BMP280;51469;52.150;4.682;2023-04-06T11:08:43;101676.13;;;15.45
64947;BMP280;51469;52.150;4.682;2023-04-06T11:11:10;101682.44;;;15.39
64947;BMP280;51469;52.150;4.682;2023-04-06T11:13:43;101683.22;;;15.39
64947;BMP280;51469;52.150;4.682;2023-04-06T11:16:13;101671.38;;;15.49
64947;BMP280;51469;52.150;4.682;2023-04-06T11:18:50;101662.34;;;15.66
64947;BMP280;51469;52.150;4.682;2023-04-06T11:21:16;101676.56;;;15.58
64947;BMP280;51469;52.150;4.682;2023-04-06T11:23:42;101679.28;;;15.40
64947;BMP280;51469;52.150;4.682;2023-04-06T11:26:12;101672.19;;;15.50
64947;BMP280;51469;52.150;4.682;2023-04-06T11:28:38;101660.69;;;15.44
64947;BMP280;51469;52.150;4.682;2023-04-06T11:31:05;101665.00;;;15.31
64947;BMP280;51469;52.150;4.682;2023-04-06T11:33:35;101648.41;;;15.24
64947;BMP280;51469;52.150;4.682;2023-04-06T11:36:01;101659.47;;;15.24
64947;BMP280;51469;52.150;4.682;2023-04-06T11:38:27;101664.19;;;15.24
64947;BMP280;51469;52.150;4.682;2023-04-06T11:40:53;101653.16;;;15.27
64947;BMP280;51469;52.150;4.682;2023-04-06T11:43:29;101650.75;;;15.22
64947;BMP280;51469;52.150;4.682;2023-04-06T11:46:02;101640.75;;;14.97
64947;BMP280;51469;52.150;4.682;2023-04-06T11:48:28;101649.13;;;15.11
64947;BMP280;51469;52.150;4.682;2023-04-06T11:50:59;101649.47;;;15.02
64947;BMP280;51469;52.150;4.682;2023-04-06T11:53:29;101648.97;;;14.86
64947;BMP280;51469;52.150;4.682;2023-04-06T11:55:55;101640.78;;;15.00
64947;BMP280;51469;52.150;4.682;2023-04-06T11:58:21;101637.63;;;15.05
64947;BMP280;51469;52.150;4.682;2023-04-06T12:00:46;101636.13;;;15.18
64947;BMP280;51469;52.150;4.682;2023-04-06T12:03:12;101642.47;;;15.32
64947;BMP280;51469;52.150;4.682;2023-04-06T12:05:38;101640.09;;;15.27
64947;BMP280;51469;52.150;4.682;2023-04-06T12:08:04;101642.84;;;15.21
64947;BMP280;51469;52.150;4.682;2023-04-06T12:10:45;101635.00;;;15.37
64947;BMP280;51469;52.150;4.682;2023-04-06T12:13:16;101614.38;;;15.13
64947;BMP280;51469;52.150;4.682;2023-04-06T12:15:51;101580.81;;;15.11
64947;BMP280;51469;52.150;4.682;2023-04-06T12:18:19;101551.94;;;14.91
64947;BMP280;51469;52.150;4.682;2023-04-06T12:20:48;101554.97;;;14.72
64947;BMP280;51469;52.150;4.682;2023-04-06T12:23:17;101618.25;;;14.91
64947;BMP280;51469;52.150;4.682;2023-04-06T12:25:42;101553.63;;;14.38
64947;BMP280;51469;52.150;4.682;2023-04-06T12:28:08;101612.69;;;14.84
64947;BMP280;51469;52.150;4.682;2023-04-06T12:30:36;101629.97;;;14.74
64947;BMP280;51469;52.150;4.682;2023-04-06T12:33:02;101617.47;;;14.94
64947;BMP280;51469;52.150;4.682;2023-04-06T12:35:27;101621.34;;;14.86
64947;BMP280;51469;52.150;4.682;2023-04-06T12:37:53;101619.03;;;14.95
64947;BMP280;51469;52.150;4.682;2023-04-06T12:40:18;101603.31;;;15.03
64947;BMP280;51469;52.150;4.682;2023-04-06T12:42:44;101609.59;;;14.96
64947;BMP280;51469;52.150;4.682;2023-04-06T12:45:11;101608.88;;;15.20
64947;BMP280;51469;52.150;4.682;2023-04-06T12:47:36;101619.97;;;15.24
64947;BMP280;51469;52.150;4.682;2023-04-06T12:50:03;101614.78;;;15.12
64947;BMP280;51469;52.150;4.682;2023-04-06T12:52:30;101615.84;;;14.93
64947;BMP280;51469;52.150;4.682;2023-04-06T12:54:57;101604.72;;;14.75
64947;BMP280;51469;52.150;4.682;2023-04-06T12:57:24;101611.13;;;14.90
64947;BMP280;51469;52.150;4.682;2023-04-06T12:59:50;101611.03;;;14.76
64947;BMP280;51469;52.150;4.682;2023-04-06T13:02:16;101600.88;;;14.94
64947;BMP280;51469;52.150;4.682;2023-04-06T13:04:42;101597.41;;;15.11
64947;BMP280;51469;52.150;4.682;2023-04-06T13:07:08;101602.09;;;15.00
64947;BMP280;51469;52.150;4.682;2023-04-06T13:09:33;101596.13;;;14.98
64947;BMP280;51469;52.150;4.682;2023-04-06T13:11:58;101592.28;;;15.13
64947;BMP280;51469;52.150;4.682;2023-04-06T13:14:24;101592.28;;;15.13
64947;BMP280;51469;52.150;4.682;2023-04-06T13:16:50;101574.88;;;15.16
64947;BMP280;51469;52.150;4.682;2023-04-06T13:19:16;101593.47;;;15.16
64947;BMP280;51469;52.150;4.682;2023-04-06T13:21:43;101584.19;;;14.80
64947;BMP280;51469;52.150;4.682;2023-04-06T13:24:08;101590.56;;;14.84
64947;BMP280;51469;52.150;4.682;2023-04-06T13:26:34;101591.31;;;14.77
64947;BMP280;51469;52.150;4.682;2023-04-06T13:29:00;101564.91;;;14.87
64947;BMP280;51469;52.150;4.682;2023-04-06T17:22:39;101519.38;;;12.27
64947;BMP280;51469;52.150;4.682;2023-04-06T17:25:04;101519.50;;;13.22
64947;BMP280;51469;52.150;4.682;2023-04-06T17:27:30;101521.22;;;13.81
64947;BMP280;51469;52.150;4.682;2023-04-06T17:29:56;101518.34;;;14.17
64947;BMP280;51469;52.150;4.682;2023-04-06T17:32:24;101523.25;;;14.41
64947;BMP280;51469;52.150;4.682;2023-04-06T17:34:52;101518.63;;;14.56
64947;BMP280;51469;52.150;4.682;2023-04-06T17:37:18;101525.72;;;14.64
64947;BMP280;51469;52.150;4.682;2023-04-06T17:39:43;101527.34;;;14.62
64947;BMP280;51469;52.150;4.682;2023-04-06T17:42:08;101532.06;;;14.61
64947;BMP280;51469;52.150;4.682;2023-04-06T17:44:34;101530.50;;;14.67